sensor_id;sensor_type;location;lat;lon;timestamp;pressure;altitude;pressure_sealevel;temperature;humidity
50696;BME280;36665;51.786;21.594;2023-04-27T00:00:36;92578.55;;;1.35;59.89
50696;BME280;36665;51.786;21.594;2023-04-27T00:09:09;92554.19;;;1.28;59.70
50696;BME280;36665;51.786;21.594;2023-04-27T00:17:32;92514.40;;;1.17;59.81
50696;BME280;36665;51.786;21.594;2023-04-27T00:25:55;92495.01;;;1.12;59.85
50696;BME280;36665;51.786;21.594;2023-04-27T00:34:18;92483.88;;;1.10;59.92
50696;BME280;36665;51.786;21.594;2023-04-27T00:42:42;92455.77;;;1.01;59.86
50696;BME280;36665;51.786;21.594;2023-04-27T00:51:06;92397.23;;;0.84;59.55
50696;BME280;36665;51.786;21.594;2023-04-27T00:59:29;92365.14;;;0.76;59.61
50696;BME280;36665;51.786;21.594;2023-04-27T01:07:52;92354.60;;;0.72;59.72
50696;BME280;36665;51.786;21.594;2023-04-27T01:16:16;92310.73;;;0.60;59.64
50696;BME280;36665;51.786;21.594;2023-04-27T01:24:40;92250.95;;;0.44;59.71
50696;BME280;36665;51.786;21.594;2023-04-27T01:33:03;92206.85;;;0.32;59.72
50696;BME280;36665;51.786;21.594;2023-04-27T01:41:26;92183.43;;;0.25;59.63
50696;BME280;36665;51.786;21.594;2023-04-27T01:49:49;92143.52;;;0.15;59.49
50696;BME280;36665;51.786;21.594;2023-04-27T01:58:14;92105.84;;;0.04;59.50
50696;BME280;36665;51.786;21.594;2023-04-27T02:06:37;92088.00;;;-0.01;59.66
50696;BME280;36665;51.786;21.594;2023-04-27T02:15:02;92077.13;;;-0.05;59.61
50696;BME280;36665;51.786;21.594;2023-04-27T02:23:25;92055.25;;;-0.10;59.62
50696;BME280;36665;51.786;21.594;2023-04-27T02:31:49;92038.46;;;-0.16;59.55
50696;BME280;36665;51.786;21.594;2023-04-27T02:40:12;92028.26;;;-0.18;59.63
50696;BME280;36665;51.786;21.594;2023-04-27T02:48:35;91993.02;;;-0.29;59.52
50696;BME280;36665;51.786;21.594;2023-04-27T02:57:00;91940.98;;;-0.41;59.61
50696;BME280;36665;51.786;21.594;2023-04-27T03:05:25;91916.20;;;-0.48;59.57
50696;BME280;36665;51.786;21.594;2023-04-27T03:13:51;91885.35;;;-0.56;59.58
50696;BME280;36665;51.786;21.594;2023-04-27T03:22:14;91839.71;;;-0.70;59.28
50696;BME280;36665;51.786;21.594;2023-04-27T03:30:38;91835.61;;;-0.71;59.37
50696;BME280;36665;51.786;21.594;2023-04-27T03:39:03;91843.34;;;-0.69;59.63
50696;BME280;36665;51.786;21.594;2023-04-27T03:47:26;91842.23;;;-0.69;59.64
50696;BME280;36665;51.786;21.594;2023-04-27T03:55:50;91916.46;;;-0.47;59.50
50696;BME280;36665;51.786;21.594;2023-04-27T04:04:13;92517.50;;;1.20;60.02
50696;BME280;36665;51.786;21.594;2023-04-27T04:12:37;93192.61;;;3.06;60.54
50696;BME280;36665;51.786;21.594;2023-04-27T04:21:00;93820.56;;;4.77;60.90
50696;BME280;36665;51.786;21.594;2023-04-27T04:29:24;94280.35;;;5.99;61.42
50696;BME280;36665;51.786;21.594;2023-04-27T04:37:47;94612.02;;;6.88;61.51
50696;BME280;36665;51.786;21.594;2023-04-27T04:46:10;94854.35;;;7.52;61.81
50696;BME280;36665;51.786;21.594;2023-04-27T04:54:33;94759.35;;;7.25;61.70
50696;BME280;36665;51.786;21.594;2023-04-27T05:02:57;94486.81;;;6.52;61.65
50696;BME280;36665;51.786;21.594;2023-04-27T05:11:21;94238.14;;;5.86;61.55
50696;BME280;36665;51.786;21.594;2023-04-27T05:19:44;94192.08;;;5.72;61.49
50696;BME280;36665;51.786;21.594;2023-04-27T05:28:09;94177.34;;;5.68;61.52
50696;BME280;36665;51.786;21.594;2023-04-27T05:36:32;94319.27;;;6.07;61.62
50696;BME280;36665;51.786;21.594;2023-04-27T05:44:55;94625.48;;;6.89;61.67
50696;BME280;36665;51.786;21.594;2023-04-27T05:53:18;94957.20;;;7.77;61.90
50696;BME280;36665;51.786;21.594;2023-04-27T06:01:41;95261.52;;;8.56;62.16
50696;BME280;36665;51.786;21.594;2023-04-27T06:10:05;95509.06;;;9.20;62.24
50696;BME280;36665;51.786;21.594;2023-04-27T06:18:29;95703.52;;;9.71;62.44
50696;BME280;36665;51.786;21.594;2023-04-27T06:26:52;95808.36;;;9.98;62.59
50696;BME280;36665;51.786;21.594;2023-04-27T06:35:17;95936.65;;;10.31;62.59
50696;BME280;36665;51.786;21.594;2023-04-27T06:43:40;96080.71;;;10.67;62.65
50696;BME280;36665;51.786;21.594;2023-04-27T06:52:03;96303.16;;;11.24;62.75
50696;BME280;36665;51.786;21.594;2023-04-27T07:00:27;96544.59;;;11.85;62.99
50696;BME280;36665;51.786;21.594;2023-04-27T07:08:50;96697.02;;;12.23;63.07
50696;BME280;36665;51.786;21.594;2023-04-27T07:17:13;96799.48;;;12.49;63.03
50696;BME280;36665;51.786;21.594;2023-04-27T07:25:36;96896.14;;;12.73;63.06
50696;BME280;36665;51.786;21.594;2023-04-27T07:34:02;96944.30;;;12.85;63.12
50696;BME280;36665;51.786;21.594;2023-04-27T07:42:25;96992.36;;;12.97;63.10
50696;BME280;36665;51.786;21.594;2023-04-27T07:50:49;97063.46;;;13.15;63.21
50696;BME280;36665;51.786;21.594;2023-04-27T07:59:12;97061.69;;;13.13;63.22
50696;BME280;36665;51.786;21.594;2023-04-27T08:07:38;97103.61;;;13.24;63.11
50696;BME280;36665;51.786;21.594;2023-04-27T08:16:06;97122.61;;;13.28;63.19
50696;BME280;36665;51.786;21.594;2023-04-27T08:24:29;97136.33;;;13.32;63.14
50696;BME280;36665;51.786;21.594;2023-04-27T08:32:52;97057.15;;;13.12;63.06
50696;BME280;36665;51.786;21.594;2023-04-27T08:41:21;96979.59;;;12.92;63.06
50696;BME280;36665;51.786;21.594;2023-04-27T08:49:44;96879.60;;;12.66;63.11
50696;BME280;36665;51.786;21.594;2023-04-27T08:58:08;96836.58;;;12.55;63.03
50696;BME280;36665;51.786;21.594;2023-04-27T09:06:34;96972.30;;;12.90;63.00
50696;BME280;36665;51.786;21.594;2023-04-27T09:14:59;97068.38;;;13.13;62.99
50696;BME280;36665;51.786;21.594;2023-04-27T09:23:36;96783.06;;;12.41;63.03
50696;BME280;36665;51.786;21.594;2023-04-27T09:31:59;96278.84;;;11.12;62.73
50696;BME280;36665;51.786;21.594;2023-04-27T09:40:26;95812.10;;;9.91;62.21
50696;BME280;36665;51.786;21.594;2023-04-27T09:48:51;95652.60;;;9.50;62.21
50696;BME280;36665;51.786;21.594;2023-04-27T10:14:53;95863.57;;;10.07;62.01
50696;BME280;36665;51.786;21.594;2023-04-27T10:23:26;95697.29;;;9.63;62.05
50696;BME280;36665;51.786;21.594;2023-04-27T10:31:50;95670.49;;;9.57;62.07
50696;BME280;36665;51.786;21.594;2023-04-27T10:40:14;95776.08;;;9.84;61.92
50696;BME280;36665;51.786;21.594;2023-04-27T10:48:40;95869.67;;;10.10;62.08
50696;BME280;36665;51.786;21.594;2023-04-27T10:57:08;95929.44;;;10.25;61.84
50696;BME280;36665;51.786;21.594;2023-04-27T11:05:31;96020.17;;;10.48;62.15
50696;BME280;36665;51.786;21.594;2023-04-27T11:13:55;96066.52;;;10.60;61.92
50696;BME280;36665;51.786;21.594;2023-04-27T11:22:18;96062.63;;;10.59;61.95
50696;BME280;36665;51.786;21.594;2023-04-27T11:30:42;96049.44;;;10.57;62.04
50696;BME280;36665;51.786;21.594;2023-04-27T11:39:05;96065.99;;;10.60;61.92
50696;BME280;36665;51.786;21.594;2023-04-27T11:47:30;96073.77;;;10.63;61.95
50696;BME280;36665;51.786;21.594;2023-04-27T11:55:54;96124.48;;;10.75;62.17
50696;BME280;36665;51.786;21.594;2023-04-27T12:04:17;96101.67;;;10.71;61.91
50696;BME280;36665;51.786;21.594;2023-04-27T12:12:41;96088.70;;;10.66;61.78
50696;BME280;36665;51.786;21.594;2023-04-27T12:21:04;95923.52;;;10.24;61.80
50696;BME280;36665;51.786;21.594;2023-04-27T12:29:30;95630.13;;;9.46;61.63
50696;BME280;36665;51.786;21.594;2023-04-27T12:37:54;95457.83;;;9.01;61.34
50696;BME280;36665;51.786;21.594;2023-04-27T12:55:15;95667.27;;;9.57;61.46
50696;BME280;36665;51.786;21.594;2023-04-27T13:03:57;95940.67;;;10.29;61.60
50696;BME280;36665;51.786;21.594;2023-04-27T13:12:21;96014.19;;;10.48;61.61
50696;BME280;36665;51.786;21.594;2023-04-27T13:20:44;96148.13;;;10.82;61.73
50696;BME280;36665;51.786;21.594;2023-04-27T13:29:07;96161.46;;;10.86;61.59
50696;BME280;36665;51.786;21.594;2023-04-27T13:37:30;96041.38;;;10.55;61.60
50696;BME280;36665;51.786;21.594;2023-04-27T13:45:53;95874.95;;;10.12;61.57
50696;BME280;36665;51.786;21.594;2023-04-27T13:54:19;95701.16;;;9.66;61.43
50696;BME280;36665;51.786;21.594;2023-04-27T14:02:43;95556.59;;;9.29;61.25
50696;BME280;36665;51.786;21.594;2023-04-27T14:11:06;95465.74;;;9.05;61.10
50696;BME280;36665;51.786;21.594;2023-04-27T14:19:30;95508.48;;;9.17;61.16
50696;BME280;36665;51.786;21.594;2023-04-27T14:27:53;95669.06;;;9.59;61.15
50696;BME280;36665;51.786;21.594;2023-04-27T14:36:16;95766.15;;;9.85;61.10
50696;BME280;36665;51.786;21.594;2023-04-27T14:44:42;95691.47;;;9.65;61.10
50696;BME280;36665;51.786;21.594;2023-04-27T14:53:05;95606.58;;;9.43;61.10
50696;BME280;36665;51.786;21.594;2023-04-27T15:01:28;95537.41;;;9.26;61.05
50696;BME280;36665;51.786;21.594;2023-04-27T15:09:52;95471.69;;;9.08;60.95
50696;BME280;36665;51.786;21.594;2023-04-27T15:18:16;95383.77;;;8.85;60.73
50696;BME280;36665;51.786;21.594;2023-04-27T15:26:40;95342.58;;;8.76;60.80
50696;BME280;36665;51.786;21.594;2023-04-27T15:35:04;95423.02;;;8.96;60.82
50696;BME280;36665;51.786;21.594;2023-04-27T15:43:27;95535.14;;;9.25;60.91
50696;BME280;36665;51.786;21.594;2023-04-27T15:51:50;95601.46;;;9.44;60.76
50696;BME280;36665;51.786;21.594;2023-04-27T16:00:14;95590.65;;;9.40;60.91
50696;BME280;36665;51.786;21.594;2023-04-27T16:08:38;95544.67;;;9.28;60.84
50696;BME280;36665;51.786;21.594;2023-04-27T16:17:01;95469.61;;;9.09;60.64
50696;BME280;36665;51.786;21.594;2023-04-27T16:25:25;95406.30;;;8.93;60.66
50696;BME280;36665;51.786;21.594;2023-04-27T16:33:48;95348.75;;;8.78;60.74
50696;BME280;36665;51.786;21.594;2023-04-27T16:42:13;95286.91;;;8.61;60.60
50696;BME280;36665;51.786;21.594;2023-04-27T16:50:42;95233.17;;;8.47;60.67
50696;BME280;36665;51.786;21.594;2023-04-27T16:59:05;95186.10;;;8.35;60.50
50696;BME280;36665;51.786;21.594;2023-04-27T17:07:29;95141.00;;;8.24;60.39
50696;BME280;36665;51.786;21.594;2023-04-27T17:15:54;95091.84;;;8.11;60.38
50696;BME280;36665;51.786;21.594;2023-04-27T17:24:17;95033.79;;;7.96;60.37
50696;BME280;36665;51.786;21.594;2023-04-27T17:32:40;94980.14;;;7.81;60.17
50696;BME280;36665;51.786;21.594;2023-04-27T17:41:04;94921.86;;;7.67;60.37
50696;BME280;36665;51.786;21.594;2023-04-27T17:49:27;94885.98;;;7.57;59.93
50696;BME280;36665;51.786;21.594;2023-04-27T17:57:50;94846.09;;;7.47;60.04
50696;BME280;36665;51.786;21.594;2023-04-27T18:06:13;94820.08;;;7.41;60.11
50696;BME280;36665;51.786;21.594;2023-04-27T18:14:36;94788.98;;;7.32;60.03
50696;BME280;36665;51.786;21.594;2023-04-27T18:23:00;94757.21;;;7.23;59.94
50696;BME280;36665;51.786;21.594;2023-04-27T18:31:26;94715.00;;;7.13;59.81
50696;BME280;36665;51.786;21.594;2023-04-27T18:39:49;94658.13;;;6.97;59.79
50696;BME280;36665;51.786;21.594;2023-04-27T18:48:14;94580.83;;;6.76;59.97
50696;BME280;36665;51.786;21.594;2023-04-27T18:56:38;94490.75;;;6.53;59.65
50696;BME280;36665;51.786;21.594;2023-04-27T19:05:03;94413.53;;;6.32;59.52
50696;BME280;36665;51.786;21.594;2023-04-27T19:13:35;94329.30;;;6.11;59.64
50696;BME280;36665;51.786;21.594;2023-04-27T19:21:58;94225.02;;;5.82;59.55
50696;BME280;36665;51.786;21.594;2023-04-27T19:30:22;94128.86;;;5.55;59.47
50696;BME280;36665;51.786;21.594;2023-04-27T19:38:47;94038.75;;;5.33;59.42
50696;BME280;36665;51.786;21.594;2023-04-27T19:47:11;93981.08;;;5.17;59.41
50696;BME280;36665;51.786;21.594;2023-04-27T19:55:35;93965.63;;;5.13;59.40
50696;BME280;36665;51.786;21.594;2023-04-27T20:04:03;93974.63;;;5.16;59.21
50696;BME280;36665;51.786;21.594;2023-04-27T20:12:28;93975.14;;;5.16;59.26
50696;BME280;36665;51.786;21.594;2023-04-27T20:20:57;93962.30;;;5.13;59.35
50696;BME280;36665;51.786;21.594;2023-04-27T20:29:23;93931.45;;;5.05;59.20
50696;BME280;36665;51.786;21.594;2023-04-27T20:37:46;93890.64;;;4.95;59.34
50696;BME280;36665;51.786;21.594;2023-04-27T20:46:10;93892.14;;;4.94;59.18
50696;BME280;36665;51.786;21.594;2023-04-27T20:54:33;93900.81;;;4.97;59.33
50696;BME280;36665;51.786;21.594;2023-04-27T21:02:56;93871.86;;;4.89;59.14
50696;BME280;36665;51.786;21.594;2023-04-27T21:11:19;93817.95;;;4.74;59.04
50696;BME280;36665;51.786;21.594;2023-04-27T21:19:43;93784.52;;;4.66;59.16
50696;BME280;36665;51.786;21.594;2023-04-27T21:28:05;93745.08;;;4.55;59.07
50696;BME280;36665;51.786;21.594;2023-04-27T21:36:28;93660.94;;;4.33;59.07
50696;BME280;36665;51.786;21.594;2023-04-27T21:44:52;93561.32;;;4.06;58.92
50696;BME280;36665;51.786;21.594;2023-04-27T21:53:15;93452.30;;;3.76;58.69
50696;BME280;36665;51.786;21.594;2023-04-27T22:01:38;93379.20;;;3.56;58.89
50696;BME280;36665;51.786;21.594;2023-04-27T22:10:05;93308.48;;;3.36;58.75
50696;BME280;36665;51.786;21.594;2023-04-27T22:18:29;93233.13;;;3.15;58.69
50696;BME280;36665;51.786;21.594;2023-04-27T22:26:52;93140.70;;;2.90;58.61
50696;BME280;36665;51.786;21.594;2023-04-27T22:35:15;93063.32;;;2.70;58.58
50696;BME280;36665;51.786;21.594;2023-04-27T22:43:48;93013.98;;;2.57;58.34
50696;BME280;36665;51.786;21.594;2023-04-27T22:52:11;92943.34;;;2.37;58.55
50696;BME280;36665;51.786;21.594;2023-04-27T23:00:34;92863.66;;;2.17;58.46
50696;BME280;36665;51.786;21.594;2023-04-27T23:08:57;92821.29;;;2.04;58.43
50696;BME280;36665;51.786;21.594;2023-04-27T23:17:20;92781.31;;;1.93;58.43
50696;BME280;36665;51.786;21.594;2023-04-27T23:25:44;92719.42;;;1.76;58.44
50696;BME280;36665;51.786;21.594;2023-04-27T23:34:07;92653.29;;;1.58;58.36
50696;BME280;36665;51.786;21.594;2023-04-27T23:42:31;92601.97;;;1.44;58.30
50696;BME280;36665;51.786;21.594;2023-04-27T23:51:01;92563.59;;;1.33;58.06
50696;BME280;36665;51.786;21.594;2023-04-27T23:59:24;92490.79;;;1.14;58.10
